sensor_id;sensor_type;location;lat;lon;timestamp;P1;durP1;ratioP1;P2;durP2;ratioP2
50773;SDS011;36745;48.544;8.918;2022-08-11T00:01:14;4.28;;;2.78;;
50773;SDS011;36745;48.544;8.918;2022-08-11T00:04:18;3.67;;;2.80;;
50773;SDS011;36745;48.544;8.918;2022-08-11T00:07:23;4.60;;;2.40;;
50773;SDS011;36745;48.544;8.918;2022-08-11T00:10:26;16.20;;;12.00;;
50773;SDS011;36745;48.544;8.918;2022-08-11T00:16:34;5.47;;;2.63;;
50773;SDS011;36745;48.544;8.918;2022-08-11T00:19:36;5.20;;;2.83;;
50773;SDS011;36745;48.544;8.918;2022-08-11T00:22:40;4.13;;;2.70;;
50773;SDS011;36745;48.544;8.918;2022-08-11T00:25:43;6.13;;;2.67;;
50773;SDS011;36745;48.544;8.918;2022-08-11T00:28:45;6.10;;;2.83;;
50773;SDS011;36745;48.544;8.918;2022-08-11T00:31:47;3.83;;;2.88;;
50773;SDS011;36745;48.544;8.918;2022-08-11T00:34:49;4.15;;;2.70;;
50773;SDS011;36745;48.544;8.918;2022-08-11T00:37:51;7.03;;;2.70;;
50773;SDS011;36745;48.544;8.918;2022-08-11T00:41:10;6.05;;;2.70;;
50773;SDS011;36745;48.544;8.918;2022-08-11T00:47:52;4.38;;;2.58;;
50773;SDS011;36745;48.544;8.918;2022-08-11T01:07:42;4.80;;;2.45;;
50773;SDS011;36745;48.544;8.918;2022-08-11T01:20:56;6.35;;;3.10;;
50773;SDS011;36745;48.544;8.918;2022-08-11T01:31:25;3.75;;;3.13;;
50773;SDS011;36745;48.544;8.918;2022-08-11T01:42:04;5.05;;;3.17;;
50773;SDS011;36745;48.544;8.918;2022-08-11T01:49:20;7.95;;;3.35;;
50773;SDS011;36745;48.544;8.918;2022-08-11T02:15:49;5.30;;;2.97;;
50773;SDS011;36745;48.544;8.918;2022-08-11T02:19:03;6.28;;;2.92;;
50773;SDS011;36745;48.544;8.918;2022-08-11T02:22:34;4.10;;;3.20;;
50773;SDS011;36745;48.544;8.918;2022-08-11T02:26:39;4.30;;;3.10;;
50773;SDS011;36745;48.544;8.918;2022-08-11T02:29:46;5.07;;;3.50;;
50773;SDS011;36745;48.544;8.918;2022-08-11T02:33:15;5.37;;;3.40;;
50773;SDS011;36745;48.544;8.918;2022-08-11T02:36:25;17.85;;;4.00;;
50773;SDS011;36745;48.544;8.918;2022-08-11T02:45:53;4.60;;;3.80;;
50773;SDS011;36745;48.544;8.918;2022-08-11T02:49:12;8.45;;;3.53;;
50773;SDS011;36745;48.544;8.918;2022-08-11T02:52:49;5.10;;;3.08;;
50773;SDS011;36745;48.544;8.918;2022-08-11T02:56:07;3.72;;;3.40;;
50773;SDS011;36745;48.544;8.918;2022-08-11T03:12:24;4.15;;;3.78;;
50773;SDS011;36745;48.544;8.918;2022-08-11T03:16:01;7.10;;;3.40;;
50773;SDS011;36745;48.544;8.918;2022-08-11T03:40:58;5.28;;;3.53;;
50773;SDS011;36745;48.544;8.918;2022-08-11T03:51:02;5.20;;;3.42;;
50773;SDS011;36745;48.544;8.918;2022-08-11T04:11:24;5.53;;;3.70;;
50773;SDS011;36745;48.544;8.918;2022-08-11T04:46:13;7.43;;;4.57;;
50773;SDS011;36745;48.544;8.918;2022-08-11T04:57:02;9.30;;;4.65;;
50773;SDS011;36745;48.544;8.918;2022-08-11T05:00:30;8.32;;;4.10;;
50773;SDS011;36745;48.544;8.918;2022-08-11T05:08:05;9.70;;;4.43;;
50773;SDS011;36745;48.544;8.918;2022-08-11T05:11:14;8.70;;;4.25;;
50773;SDS011;36745;48.544;8.918;2022-08-11T05:14:37;11.20;;;3.95;;
50773;SDS011;36745;48.544;8.918;2022-08-11T05:24:49;6.60;;;3.47;;
50773;SDS011;36745;48.544;8.918;2022-08-11T05:28:15;7.45;;;3.92;;
50773;SDS011;36745;48.544;8.918;2022-08-11T05:31:58;8.82;;;3.38;;
50773;SDS011;36745;48.544;8.918;2022-08-11T05:35:23;5.45;;;3.60;;
50773;SDS011;36745;48.544;8.918;2022-08-11T05:38:29;3.80;;;3.08;;
50773;SDS011;36745;48.544;8.918;2022-08-11T05:41:51;10.65;;;3.80;;
50773;SDS011;36745;48.544;8.918;2022-08-11T05:45:15;18.25;;;4.55;;
50773;SDS011;36745;48.544;8.918;2022-08-11T05:48:35;5.65;;;3.40;;
50773;SDS011;36745;48.544;8.918;2022-08-11T05:51:54;6.80;;;3.67;;
50773;SDS011;36745;48.544;8.918;2022-08-11T05:55:14;8.40;;;3.40;;
50773;SDS011;36745;48.544;8.918;2022-08-11T05:58:36;10.73;;;3.75;;
50773;SDS011;36745;48.544;8.918;2022-08-11T06:01:39;11.48;;;3.70;;
50773;SDS011;36745;48.544;8.918;2022-08-11T06:04:42;3.78;;;3.47;;
50773;SDS011;36745;48.544;8.918;2022-08-11T06:07:43;5.82;;;3.50;;
50773;SDS011;36745;48.544;8.918;2022-08-11T06:10:44;7.13;;;3.60;;
50773;SDS011;36745;48.544;8.918;2022-08-11T06:13:45;6.45;;;3.30;;
50773;SDS011;36745;48.544;8.918;2022-08-11T06:16:48;16.48;;;4.03;;
50773;SDS011;36745;48.544;8.918;2022-08-11T06:19:49;9.47;;;3.50;;
50773;SDS011;36745;48.544;8.918;2022-08-11T06:22:57;19.02;;;3.85;;
50773;SDS011;36745;48.544;8.918;2022-08-11T06:26:01;9.55;;;3.75;;
50773;SDS011;36745;48.544;8.918;2022-08-11T06:29:08;12.32;;;3.65;;
50773;SDS011;36745;48.544;8.918;2022-08-11T06:32:11;14.23;;;3.88;;
50773;SDS011;36745;48.544;8.918;2022-08-11T06:41:58;12.48;;;3.08;;
50773;SDS011;36745;48.544;8.918;2022-08-11T06:45:25;8.40;;;3.10;;
50773;SDS011;36745;48.544;8.918;2022-08-11T06:48:29;7.85;;;3.10;;
50773;SDS011;36745;48.544;8.918;2022-08-11T06:51:33;6.15;;;3.35;;
50773;SDS011;36745;48.544;8.918;2022-08-11T06:54:38;6.93;;;2.80;;
50773;SDS011;36745;48.544;8.918;2022-08-11T06:57:43;7.78;;;3.15;;
50773;SDS011;36745;48.544;8.918;2022-08-11T07:01:07;9.05;;;3.50;;
50773;SDS011;36745;48.544;8.918;2022-08-11T07:04:15;7.68;;;3.05;;
50773;SDS011;36745;48.544;8.918;2022-08-11T07:14:40;4.68;;;3.05;;
50773;SDS011;36745;48.544;8.918;2022-08-11T07:18:33;9.88;;;2.80;;
50773;SDS011;36745;48.544;8.918;2022-08-11T07:21:53;5.05;;;3.25;;
50773;SDS011;36745;48.544;8.918;2022-08-11T07:25:15;6.28;;;3.15;;
50773;SDS011;36745;48.544;8.918;2022-08-11T07:28:55;7.30;;;3.00;;
50773;SDS011;36745;48.544;8.918;2022-08-11T07:31:59;3.45;;;3.05;;
50773;SDS011;36745;48.544;8.918;2022-08-11T07:35:08;3.97;;;2.90;;
50773;SDS011;36745;48.544;8.918;2022-08-11T07:38:18;6.85;;;2.88;;
50773;SDS011;36745;48.544;8.918;2022-08-11T07:41:23;4.82;;;2.78;;
50773;SDS011;36745;48.544;8.918;2022-08-11T07:44:25;6.93;;;3.25;;
50773;SDS011;36745;48.544;8.918;2022-08-11T07:47:28;4.75;;;3.17;;
50773;SDS011;36745;48.544;8.918;2022-08-11T07:50:47;4.38;;;2.70;;
50773;SDS011;36745;48.544;8.918;2022-08-11T07:54:07;4.93;;;2.70;;
50773;SDS011;36745;48.544;8.918;2022-08-11T07:57:10;5.93;;;3.13;;
50773;SDS011;36745;48.544;8.918;2022-08-11T08:00:29;6.63;;;3.20;;
50773;SDS011;36745;48.544;8.918;2022-08-11T08:03:54;4.32;;;2.55;;
50773;SDS011;36745;48.544;8.918;2022-08-11T08:07:17;5.63;;;2.97;;
50773;SDS011;36745;48.544;8.918;2022-08-11T08:10:38;6.47;;;2.55;;
50773;SDS011;36745;48.544;8.918;2022-08-11T08:13:57;3.05;;;2.85;;
50773;SDS011;36745;48.544;8.918;2022-08-11T08:17:17;7.18;;;2.67;;
50773;SDS011;36745;48.544;8.918;2022-08-11T08:20:39;5.47;;;2.65;;
50773;SDS011;36745;48.544;8.918;2022-08-11T08:23:44;6.45;;;2.90;;
50773;SDS011;36745;48.544;8.918;2022-08-11T08:26:46;7.97;;;2.70;;
50773;SDS011;36745;48.544;8.918;2022-08-11T08:30:00;4.35;;;2.60;;
50773;SDS011;36745;48.544;8.918;2022-08-11T08:33:22;5.78;;;2.70;;
50773;SDS011;36745;48.544;8.918;2022-08-11T08:36:25;2.72;;;2.50;;
50773;SDS011;36745;48.544;8.918;2022-08-11T08:39:25;2.28;;;2.08;;
50773;SDS011;36745;48.544;8.918;2022-08-11T08:42:27;2.60;;;2.40;;
50773;SDS011;36745;48.544;8.918;2022-08-11T08:45:32;4.20;;;2.50;;
50773;SDS011;36745;48.544;8.918;2022-08-11T08:48:34;5.72;;;2.63;;
50773;SDS011;36745;48.544;8.918;2022-08-11T08:51:37;3.05;;;2.72;;
50773;SDS011;36745;48.544;8.918;2022-08-11T08:54:41;4.72;;;2.60;;
50773;SDS011;36745;48.544;8.918;2022-08-11T08:57:44;3.50;;;2.60;;
50773;SDS011;36745;48.544;8.918;2022-08-11T09:00:48;4.95;;;2.25;;
50773;SDS011;36745;48.544;8.918;2022-08-11T09:03:50;6.72;;;2.30;;
50773;SDS011;36745;48.544;8.918;2022-08-11T09:06:52;5.88;;;2.13;;
50773;SDS011;36745;48.544;8.918;2022-08-11T09:09:55;3.65;;;2.47;;
50773;SDS011;36745;48.544;8.918;2022-08-11T09:12:58;5.43;;;2.70;;
50773;SDS011;36745;48.544;8.918;2022-08-11T09:15:59;3.25;;;2.80;;
50773;SDS011;36745;48.544;8.918;2022-08-11T09:19:01;7.20;;;2.33;;
50773;SDS011;36745;48.544;8.918;2022-08-11T09:22:02;2.60;;;2.40;;
50773;SDS011;36745;48.544;8.918;2022-08-11T09:25:24;5.68;;;2.70;;
50773;SDS011;36745;48.544;8.918;2022-08-11T09:29:03;3.75;;;2.38;;
50773;SDS011;36745;48.544;8.918;2022-08-11T09:32:20;4.45;;;2.65;;
50773;SDS011;36745;48.544;8.918;2022-08-11T09:35:26;5.38;;;2.67;;
50773;SDS011;36745;48.544;8.918;2022-08-11T09:38:27;3.67;;;2.30;;
50773;SDS011;36745;48.544;8.918;2022-08-11T09:41:46;8.73;;;2.85;;
50773;SDS011;36745;48.544;8.918;2022-08-11T09:44:48;2.28;;;2.08;;
50773;SDS011;36745;48.544;8.918;2022-08-11T09:47:48;7.05;;;2.60;;
50773;SDS011;36745;48.544;8.918;2022-08-11T09:50:50;2.80;;;2.47;;
50773;SDS011;36745;48.544;8.918;2022-08-11T09:53:53;3.17;;;2.88;;
50773;SDS011;36745;48.544;8.918;2022-08-11T09:56:54;10.07;;;2.42;;
50773;SDS011;36745;48.544;8.918;2022-08-11T10:00:13;2.95;;;2.60;;
50773;SDS011;36745;48.544;8.918;2022-08-11T10:03:25;3.42;;;2.20;;
50773;SDS011;36745;48.544;8.918;2022-08-11T10:06:27;3.08;;;2.20;;
50773;SDS011;36745;48.544;8.918;2022-08-11T10:09:51;5.03;;;2.00;;
50773;SDS011;36745;48.544;8.918;2022-08-11T10:12:57;4.35;;;2.10;;
50773;SDS011;36745;48.544;8.918;2022-08-11T10:16:02;6.20;;;2.15;;
50773;SDS011;36745;48.544;8.918;2022-08-11T10:19:07;2.58;;;2.17;;
50773;SDS011;36745;48.544;8.918;2022-08-11T10:22:09;3.60;;;2.07;;
50773;SDS011;36745;48.544;8.918;2022-08-11T10:25:29;4.18;;;2.13;;
50773;SDS011;36745;48.544;8.918;2022-08-11T10:28:48;2.60;;;1.73;;
50773;SDS011;36745;48.544;8.918;2022-08-11T10:31:49;2.65;;;1.95;;
50773;SDS011;36745;48.544;8.918;2022-08-11T10:35:08;3.80;;;1.95;;
50773;SDS011;36745;48.544;8.918;2022-08-11T10:38:12;3.10;;;1.52;;
50773;SDS011;36745;48.544;8.918;2022-08-11T10:41:14;2.10;;;1.80;;
50773;SDS011;36745;48.544;8.918;2022-08-11T10:44:37;1.98;;;1.75;;
50773;SDS011;36745;48.544;8.918;2022-08-11T10:47:40;3.35;;;2.40;;
50773;SDS011;36745;48.544;8.918;2022-08-11T10:50:44;1.85;;;1.55;;
50773;SDS011;36745;48.544;8.918;2022-08-11T10:54:05;2.67;;;1.85;;
50773;SDS011;36745;48.544;8.918;2022-08-11T10:57:24;5.18;;;1.70;;
50773;SDS011;36745;48.544;8.918;2022-08-11T11:00:45;3.53;;;1.75;;
50773;SDS011;36745;48.544;8.918;2022-08-11T11:03:45;3.13;;;1.80;;
50773;SDS011;36745;48.544;8.918;2022-08-11T11:07:03;1.65;;;1.55;;
50773;SDS011;36745;48.544;8.918;2022-08-11T11:10:13;2.10;;;1.92;;
50773;SDS011;36745;48.544;8.918;2022-08-11T11:13:15;4.38;;;1.60;;
50773;SDS011;36745;48.544;8.918;2022-08-11T11:16:35;5.00;;;1.48;;
50773;SDS011;36745;48.544;8.918;2022-08-11T11:19:57;2.47;;;1.65;;
50773;SDS011;36745;48.544;8.918;2022-08-11T11:23:06;2.67;;;1.60;;
50773;SDS011;36745;48.544;8.918;2022-08-11T11:33:12;2.83;;;1.67;;
50773;SDS011;36745;48.544;8.918;2022-08-11T11:39:31;6.20;;;1.70;;
50773;SDS011;36745;48.544;8.918;2022-08-11T11:42:32;4.57;;;1.60;;
50773;SDS011;36745;48.544;8.918;2022-08-11T11:45:33;3.15;;;1.80;;
50773;SDS011;36745;48.544;8.918;2022-08-11T11:48:34;2.97;;;1.60;;
50773;SDS011;36745;48.544;8.918;2022-08-11T11:51:36;5.35;;;1.65;;
50773;SDS011;36745;48.544;8.918;2022-08-11T11:54:37;1.75;;;1.65;;
50773;SDS011;36745;48.544;8.918;2022-08-11T11:57:39;4.97;;;1.60;;
50773;SDS011;36745;48.544;8.918;2022-08-11T12:01:00;4.72;;;1.73;;
50773;SDS011;36745;48.544;8.918;2022-08-11T12:04:16;4.00;;;1.77;;
50773;SDS011;36745;48.544;8.918;2022-08-11T12:07:19;2.33;;;1.48;;
50773;SDS011;36745;48.544;8.918;2022-08-11T12:10:42;3.38;;;1.80;;
50773;SDS011;36745;48.544;8.918;2022-08-11T12:14:15;2.25;;;1.50;;
50773;SDS011;36745;48.544;8.918;2022-08-11T12:17:17;1.92;;;1.73;;
50773;SDS011;36745;48.544;8.918;2022-08-11T12:20:18;3.28;;;1.88;;
50773;SDS011;36745;48.544;8.918;2022-08-11T12:23:20;2.78;;;1.67;;
50773;SDS011;36745;48.544;8.918;2022-08-11T12:26:39;2.55;;;1.98;;
50773;SDS011;36745;48.544;8.918;2022-08-11T12:29:50;2.63;;;1.60;;
50773;SDS011;36745;48.544;8.918;2022-08-11T12:32:53;3.83;;;1.70;;
50773;SDS011;36745;48.544;8.918;2022-08-11T12:35:57;3.55;;;1.73;;
50773;SDS011;36745;48.544;8.918;2022-08-11T12:38:59;3.92;;;1.70;;
50773;SDS011;36745;48.544;8.918;2022-08-11T12:42:01;1.70;;;1.60;;
50773;SDS011;36745;48.544;8.918;2022-08-11T12:45:23;2.60;;;1.67;;
50773;SDS011;36745;48.544;8.918;2022-08-11T12:48:27;2.67;;;1.77;;
50773;SDS011;36745;48.544;8.918;2022-08-11T12:51:50;1.73;;;1.50;;
50773;SDS011;36745;48.544;8.918;2022-08-11T12:55:10;5.15;;;1.70;;
50773;SDS011;36745;48.544;8.918;2022-08-11T12:58:33;2.25;;;1.73;;
50773;SDS011;36745;48.544;8.918;2022-08-11T13:01:34;3.45;;;1.60;;
50773;SDS011;36745;48.544;8.918;2022-08-11T13:04:53;3.35;;;1.50;;
50773;SDS011;36745;48.544;8.918;2022-08-11T13:08:02;4.30;;;1.92;;
50773;SDS011;36745;48.544;8.918;2022-08-11T13:11:04;3.22;;;1.67;;
50773;SDS011;36745;48.544;8.918;2022-08-11T13:14:25;1.88;;;1.75;;
50773;SDS011;36745;48.544;8.918;2022-08-11T13:17:26;4.07;;;1.73;;
50773;SDS011;36745;48.544;8.918;2022-08-11T13:20:28;5.82;;;2.17;;
50773;SDS011;36745;48.544;8.918;2022-08-11T13:23:29;4.97;;;1.58;;
50773;SDS011;36745;48.544;8.918;2022-08-11T13:26:31;3.25;;;1.60;;
50773;SDS011;36745;48.544;8.918;2022-08-11T13:29:34;4.75;;;1.58;;
50773;SDS011;36745;48.544;8.918;2022-08-11T13:32:35;2.30;;;1.80;;
50773;SDS011;36745;48.544;8.918;2022-08-11T13:35:36;1.70;;;1.60;;
50773;SDS011;36745;48.544;8.918;2022-08-11T13:38:37;2.80;;;1.45;;
50773;SDS011;36745;48.544;8.918;2022-08-11T13:41:41;4.25;;;1.50;;
50773;SDS011;36745;48.544;8.918;2022-08-11T13:44:43;4.85;;;2.47;;
50773;SDS011;36745;48.544;8.918;2022-08-11T13:47:45;2.65;;;1.77;;
50773;SDS011;36745;48.544;8.918;2022-08-11T13:50:45;5.30;;;1.77;;
50773;SDS011;36745;48.544;8.918;2022-08-11T13:54:05;7.72;;;2.08;;
50773;SDS011;36745;48.544;8.918;2022-08-11T13:57:08;2.45;;;1.48;;
50773;SDS011;36745;48.544;8.918;2022-08-11T14:00:11;3.50;;;1.50;;
50773;SDS011;36745;48.544;8.918;2022-08-11T14:03:12;3.05;;;1.77;;
50773;SDS011;36745;48.544;8.918;2022-08-11T14:06:14;2.85;;;1.63;;
50773;SDS011;36745;48.544;8.918;2022-08-11T14:09:25;3.55;;;1.98;;
50773;SDS011;36745;48.544;8.918;2022-08-11T14:12:28;4.63;;;1.50;;
50773;SDS011;36745;48.544;8.918;2022-08-11T14:15:49;3.67;;;1.65;;
50773;SDS011;36745;48.544;8.918;2022-08-11T14:18:53;4.47;;;1.70;;
50773;SDS011;36745;48.544;8.918;2022-08-11T14:21:56;2.60;;;2.08;;
50773;SDS011;36745;48.544;8.918;2022-08-11T14:25:06;3.03;;;1.50;;
50773;SDS011;36745;48.544;8.918;2022-08-11T14:28:07;4.63;;;1.75;;
50773;SDS011;36745;48.544;8.918;2022-08-11T14:31:08;4.82;;;1.50;;
50773;SDS011;36745;48.544;8.918;2022-08-11T14:34:09;6.97;;;1.50;;
50773;SDS011;36745;48.544;8.918;2022-08-11T14:37:12;3.72;;;1.50;;
50773;SDS011;36745;48.544;8.918;2022-08-11T14:40:17;3.30;;;1.70;;
50773;SDS011;36745;48.544;8.918;2022-08-11T14:43:36;3.45;;;1.70;;
50773;SDS011;36745;48.544;8.918;2022-08-11T14:46:56;2.03;;;1.50;;
50773;SDS011;36745;48.544;8.918;2022-08-11T14:50:04;2.72;;;1.70;;
50773;SDS011;36745;48.544;8.918;2022-08-11T14:53:07;2.78;;;1.60;;
50773;SDS011;36745;48.544;8.918;2022-08-11T14:56:10;4.30;;;1.90;;
50773;SDS011;36745;48.544;8.918;2022-08-11T14:59:29;2.42;;;1.88;;
50773;SDS011;36745;48.544;8.918;2022-08-11T15:02:32;2.73;;;1.50;;
50773;SDS011;36745;48.544;8.918;2022-08-11T15:06:00;4.15;;;1.75;;
50773;SDS011;36745;48.544;8.918;2022-08-11T15:09:02;2.55;;;1.88;;
50773;SDS011;36745;48.544;8.918;2022-08-11T15:12:05;3.58;;;1.80;;
50773;SDS011;36745;48.544;8.918;2022-08-11T15:15:15;3.03;;;1.80;;
50773;SDS011;36745;48.544;8.918;2022-08-11T15:18:35;2.50;;;1.88;;
50773;SDS011;36745;48.544;8.918;2022-08-11T15:21:37;3.28;;;1.63;;
50773;SDS011;36745;48.544;8.918;2022-08-11T15:24:57;2.00;;;1.60;;
50773;SDS011;36745;48.544;8.918;2022-08-11T15:27:58;2.70;;;2.10;;
50773;SDS011;36745;48.544;8.918;2022-08-11T15:31:19;5.38;;;1.67;;
50773;SDS011;36745;48.544;8.918;2022-08-11T15:34:41;2.08;;;1.75;;
50773;SDS011;36745;48.544;8.918;2022-08-11T15:38:01;3.45;;;1.65;;
50773;SDS011;36745;48.544;8.918;2022-08-11T15:41:05;4.03;;;2.00;;
50773;SDS011;36745;48.544;8.918;2022-08-11T15:44:26;3.67;;;1.90;;
50773;SDS011;36745;48.544;8.918;2022-08-11T15:47:49;3.00;;;1.98;;
50773;SDS011;36745;48.544;8.918;2022-08-11T15:50:57;4.82;;;2.05;;
50773;SDS011;36745;48.544;8.918;2022-08-11T15:54:13;3.15;;;2.03;;
50773;SDS011;36745;48.544;8.918;2022-08-11T15:57:16;4.45;;;2.53;;
50773;SDS011;36745;48.544;8.918;2022-08-11T16:00:38;6.18;;;3.95;;
50773;SDS011;36745;48.544;8.918;2022-08-11T16:04:00;9.95;;;2.30;;
50773;SDS011;36745;48.544;8.918;2022-08-11T16:07:11;3.97;;;2.30;;
50773;SDS011;36745;48.544;8.918;2022-08-11T16:10:14;2.70;;;1.80;;
50773;SDS011;36745;48.544;8.918;2022-08-11T16:13:22;3.95;;;2.33;;
50773;SDS011;36745;48.544;8.918;2022-08-11T16:16:24;11.37;;;4.53;;
50773;SDS011;36745;48.544;8.918;2022-08-11T16:19:31;11.97;;;5.17;;
50773;SDS011;36745;48.544;8.918;2022-08-11T16:22:40;5.18;;;3.63;;
50773;SDS011;36745;48.544;8.918;2022-08-11T16:25:46;8.57;;;2.28;;
50773;SDS011;36745;48.544;8.918;2022-08-11T16:28:51;1.67;;;1.57;;
50773;SDS011;36745;48.544;8.918;2022-08-11T16:31:54;4.38;;;1.80;;
50773;SDS011;36745;48.544;8.918;2022-08-11T16:35:28;5.45;;;2.58;;
50773;SDS011;36745;48.544;8.918;2022-08-11T16:38:51;6.57;;;2.28;;
50773;SDS011;36745;48.544;8.918;2022-08-11T16:41:53;4.25;;;2.10;;
50773;SDS011;36745;48.544;8.918;2022-08-11T16:45:13;4.50;;;1.90;;
50773;SDS011;36745;48.544;8.918;2022-08-11T16:48:33;3.83;;;1.90;;
50773;SDS011;36745;48.544;8.918;2022-08-11T16:51:35;4.45;;;2.17;;
50773;SDS011;36745;48.544;8.918;2022-08-11T16:54:36;6.47;;;1.83;;
50773;SDS011;36745;48.544;8.918;2022-08-11T16:57:38;2.92;;;1.58;;
50773;SDS011;36745;48.544;8.918;2022-08-11T17:00:58;6.43;;;2.00;;
50773;SDS011;36745;48.544;8.918;2022-08-11T17:07:25;4.78;;;2.05;;
50773;SDS011;36745;48.544;8.918;2022-08-11T17:10:50;2.55;;;1.70;;
50773;SDS011;36745;48.544;8.918;2022-08-11T17:14:25;3.47;;;1.95;;
50773;SDS011;36745;48.544;8.918;2022-08-11T17:17:36;2.92;;;1.65;;
50773;SDS011;36745;48.544;8.918;2022-08-11T17:20:38;3.72;;;1.80;;
50773;SDS011;36745;48.544;8.918;2022-08-11T17:23:40;6.22;;;2.40;;
50773;SDS011;36745;48.544;8.918;2022-08-11T17:26:48;6.10;;;1.73;;
50773;SDS011;36745;48.544;8.918;2022-08-11T17:29:57;3.10;;;1.73;;
50773;SDS011;36745;48.544;8.918;2022-08-11T17:33:00;4.65;;;1.55;;
50773;SDS011;36745;48.544;8.918;2022-08-11T17:36:19;4.05;;;1.92;;
50773;SDS011;36745;48.544;8.918;2022-08-11T17:39:22;3.40;;;1.90;;
50773;SDS011;36745;48.544;8.918;2022-08-11T17:42:28;2.00;;;1.80;;
50773;SDS011;36745;48.544;8.918;2022-08-11T17:45:49;2.15;;;1.70;;
50773;SDS011;36745;48.544;8.918;2022-08-11T17:49:10;3.63;;;1.80;;
50773;SDS011;36745;48.544;8.918;2022-08-11T17:52:11;1.98;;;1.58;;
50773;SDS011;36745;48.544;8.918;2022-08-11T17:55:32;5.18;;;1.98;;
50773;SDS011;36745;48.544;8.918;2022-08-11T17:58:53;1.88;;;1.77;;
50773;SDS011;36745;48.544;8.918;2022-08-11T18:02:14;3.97;;;1.90;;
50773;SDS011;36745;48.544;8.918;2022-08-11T18:05:37;3.50;;;1.80;;
50773;SDS011;36745;48.544;8.918;2022-08-11T18:08:43;3.03;;;1.70;;
50773;SDS011;36745;48.544;8.918;2022-08-11T18:12:05;5.75;;;2.25;;
50773;SDS011;36745;48.544;8.918;2022-08-11T18:15:25;5.25;;;1.92;;
50773;SDS011;36745;48.544;8.918;2022-08-11T18:18:46;14.45;;;2.30;;
50773;SDS011;36745;48.544;8.918;2022-08-11T18:22:10;5.35;;;1.80;;
50773;SDS011;36745;48.544;8.918;2022-08-11T18:25:34;6.95;;;2.20;;
50773;SDS011;36745;48.544;8.918;2022-08-11T18:28:58;10.88;;;2.25;;
50773;SDS011;36745;48.544;8.918;2022-08-11T18:32:18;10.80;;;3.28;;
50773;SDS011;36745;48.544;8.918;2022-08-11T18:35:41;13.13;;;2.33;;
50773;SDS011;36745;48.544;8.918;2022-08-11T18:39:00;7.05;;;2.50;;
50773;SDS011;36745;48.544;8.918;2022-08-11T18:42:21;11.73;;;2.38;;
50773;SDS011;36745;48.544;8.918;2022-08-11T18:45:43;9.40;;;2.40;;
50773;SDS011;36745;48.544;8.918;2022-08-11T18:49:09;11.35;;;2.35;;
50773;SDS011;36745;48.544;8.918;2022-08-11T18:52:35;24.05;;;3.00;;
50773;SDS011;36745;48.544;8.918;2022-08-11T18:55:57;17.60;;;2.75;;
50773;SDS011;36745;48.544;8.918;2022-08-11T18:59:19;16.50;;;2.60;;
50773;SDS011;36745;48.544;8.918;2022-08-11T19:02:42;14.15;;;2.30;;
50773;SDS011;36745;48.544;8.918;2022-08-11T19:06:04;15.70;;;2.80;;
50773;SDS011;36745;48.544;8.918;2022-08-11T19:09:26;9.07;;;2.30;;
50773;SDS011;36745;48.544;8.918;2022-08-11T19:12:47;15.73;;;2.33;;
50773;SDS011;36745;48.544;8.918;2022-08-11T19:16:08;22.48;;;2.67;;
50773;SDS011;36745;48.544;8.918;2022-08-11T19:19:27;8.35;;;2.35;;
50773;SDS011;36745;48.544;8.918;2022-08-11T19:22:48;14.23;;;2.92;;
50773;SDS011;36745;48.544;8.918;2022-08-11T19:26:10;15.45;;;2.50;;
50773;SDS011;36745;48.544;8.918;2022-08-11T19:29:30;22.45;;;2.97;;
50773;SDS011;36745;48.544;8.918;2022-08-11T19:32:52;13.48;;;2.47;;
50773;SDS011;36745;48.544;8.918;2022-08-11T19:36:16;14.48;;;2.53;;
50773;SDS011;36745;48.544;8.918;2022-08-11T19:39:36;16.73;;;2.60;;
50773;SDS011;36745;48.544;8.918;2022-08-11T19:42:57;20.02;;;3.17;;
50773;SDS011;36745;48.544;8.918;2022-08-11T19:46:19;15.23;;;3.40;;
50773;SDS011;36745;48.544;8.918;2022-08-11T19:49:40;16.83;;;2.60;;
50773;SDS011;36745;48.544;8.918;2022-08-11T19:53:01;7.82;;;2.60;;
50773;SDS011;36745;48.544;8.918;2022-08-11T19:56:21;25.38;;;2.70;;
50773;SDS011;36745;48.544;8.918;2022-08-11T19:59:41;14.50;;;2.83;;
50773;SDS011;36745;48.544;8.918;2022-08-11T20:03:02;15.23;;;2.47;;
50773;SDS011;36745;48.544;8.918;2022-08-11T20:06:24;13.63;;;2.30;;
50773;SDS011;36745;48.544;8.918;2022-08-11T20:09:43;14.75;;;3.00;;
50773;SDS011;36745;48.544;8.918;2022-08-11T20:13:07;12.20;;;2.40;;
50773;SDS011;36745;48.544;8.918;2022-08-11T20:16:28;15.38;;;3.35;;
50773;SDS011;36745;48.544;8.918;2022-08-11T20:19:50;16.05;;;3.47;;
50773;SDS011;36745;48.544;8.918;2022-08-11T20:23:11;12.20;;;2.65;;
50773;SDS011;36745;48.544;8.918;2022-08-11T20:26:32;8.55;;;2.03;;
50773;SDS011;36745;48.544;8.918;2022-08-11T20:29:53;9.82;;;2.63;;
50773;SDS011;36745;48.544;8.918;2022-08-11T20:33:14;17.17;;;3.53;;
50773;SDS011;36745;48.544;8.918;2022-08-11T20:36:34;7.95;;;3.13;;
50773;SDS011;36745;48.544;8.918;2022-08-11T20:39:55;13.48;;;2.80;;
50773;SDS011;36745;48.544;8.918;2022-08-11T20:43:16;6.82;;;2.50;;
50773;SDS011;36745;48.544;8.918;2022-08-11T20:46:38;13.07;;;2.40;;
50773;SDS011;36745;48.544;8.918;2022-08-11T20:49:58;14.63;;;2.80;;
50773;SDS011;36745;48.544;8.918;2022-08-11T20:53:19;8.93;;;3.08;;
50773;SDS011;36745;48.544;8.918;2022-08-11T20:56:39;13.13;;;2.80;;
50773;SDS011;36745;48.544;8.918;2022-08-11T21:00:07;5.68;;;2.50;;
50773;SDS011;36745;48.544;8.918;2022-08-11T21:03:26;10.02;;;2.80;;
50773;SDS011;36745;48.544;8.918;2022-08-11T21:06:45;6.85;;;2.60;;
50773;SDS011;36745;48.544;8.918;2022-08-11T21:10:06;4.75;;;2.78;;
50773;SDS011;36745;48.544;8.918;2022-08-11T21:13:29;6.63;;;3.00;;
50773;SDS011;36745;48.544;8.918;2022-08-11T21:16:51;6.50;;;3.07;;
50773;SDS011;36745;48.544;8.918;2022-08-11T21:20:22;7.18;;;2.88;;
50773;SDS011;36745;48.544;8.918;2022-08-11T21:23:41;6.97;;;3.13;;
50773;SDS011;36745;48.544;8.918;2022-08-11T21:27:02;10.90;;;3.15;;
50773;SDS011;36745;48.544;8.918;2022-08-11T21:30:26;13.60;;;3.10;;
50773;SDS011;36745;48.544;8.918;2022-08-11T21:33:46;5.75;;;2.88;;
50773;SDS011;36745;48.544;8.918;2022-08-11T21:37:06;10.77;;;3.00;;
50773;SDS011;36745;48.544;8.918;2022-08-11T21:40:27;7.32;;;3.15;;
50773;SDS011;36745;48.544;8.918;2022-08-11T21:43:51;6.00;;;2.85;;
50773;SDS011;36745;48.544;8.918;2022-08-11T21:47:14;9.27;;;3.20;;
50773;SDS011;36745;48.544;8.918;2022-08-11T21:50:34;9.20;;;3.05;;
50773;SDS011;36745;48.544;8.918;2022-08-11T21:53:53;7.10;;;3.20;;
50773;SDS011;36745;48.544;8.918;2022-08-11T21:57:12;4.18;;;3.00;;
50773;SDS011;36745;48.544;8.918;2022-08-11T22:00:33;5.90;;;2.88;;
50773;SDS011;36745;48.544;8.918;2022-08-11T22:03:53;5.78;;;2.75;;
50773;SDS011;36745;48.544;8.918;2022-08-11T22:07:13;9.65;;;3.03;;
50773;SDS011;36745;48.544;8.918;2022-08-11T22:10:34;5.45;;;3.08;;
50773;SDS011;36745;48.544;8.918;2022-08-11T22:13:54;4.68;;;2.80;;
50773;SDS011;36745;48.544;8.918;2022-08-11T22:17:13;4.07;;;2.85;;
50773;SDS011;36745;48.544;8.918;2022-08-11T22:20:32;3.83;;;3.20;;
50773;SDS011;36745;48.544;8.918;2022-08-11T22:23:52;7.72;;;3.42;;
50773;SDS011;36745;48.544;8.918;2022-08-11T22:27:11;12.57;;;3.50;;
50773;SDS011;36745;48.544;8.918;2022-08-11T22:30:31;7.30;;;3.35;;
50773;SDS011;36745;48.544;8.918;2022-08-11T22:33:50;4.93;;;3.10;;
50773;SDS011;36745;48.544;8.918;2022-08-11T22:37:10;13.93;;;3.60;;
50773;SDS011;36745;48.544;8.918;2022-08-11T22:40:32;5.65;;;2.90;;
50773;SDS011;36745;48.544;8.918;2022-08-11T22:43:51;8.52;;;3.20;;
50773;SDS011;36745;48.544;8.918;2022-08-11T22:47:10;7.10;;;3.10;;
50773;SDS011;36745;48.544;8.918;2022-08-11T22:50:32;6.00;;;3.20;;
50773;SDS011;36745;48.544;8.918;2022-08-11T22:53:54;7.90;;;3.33;;
50773;SDS011;36745;48.544;8.918;2022-08-11T22:57:15;6.43;;;3.30;;
50773;SDS011;36745;48.544;8.918;2022-08-11T23:00:35;9.10;;;3.40;;